createdAt,value
2023-01-11T00:00:56.834Z,5.90
2023-01-11T00:03:23.866Z,4.10
2023-01-11T00:05:50.988Z,4.30
2023-01-11T00:08:19.503Z,4.40
2023-01-11T00:10:46.532Z,4.10
2023-01-11T00:13:14.414Z,5.40
2023-01-11T00:15:41.614Z,5.00
2023-01-11T00:18:10.131Z,4.30
2023-01-11T00:20:41.997Z,4.00
2023-01-11T00:23:09.268Z,5.00
2023-01-11T00:25:37.245Z,6.00
2023-01-11T00:28:04.667Z,4.40
2023-01-11T00:30:31.711Z,4.90
2023-01-11T00:33:00.284Z,3.80
2023-01-11T00:35:30.417Z,4.80
2023-01-11T00:37:57.679Z,5.60
2023-01-11T00:40:26.558Z,6.10
2023-01-11T00:43:12.292Z,5.50
2023-01-11T00:45:58.605Z,5.50
2023-01-11T00:48:25.881Z,4.60
2023-01-11T00:50:55.437Z,4.70
2023-01-11T00:53:22.702Z,5.00
2023-01-11T00:55:49.806Z,3.70
2023-01-11T00:58:16.886Z,4.80
2023-01-11T01:00:43.900Z,4.10
2023-01-11T01:03:11.001Z,4.30
2023-01-11T01:05:39.216Z,4.40
2023-01-11T01:08:06.722Z,4.40
2023-01-11T01:10:33.878Z,5.00
2023-01-11T01:13:19.408Z,5.40
2023-01-11T01:15:46.367Z,4.70
2023-01-11T01:18:13.388Z,5.10
2023-01-11T01:20:40.440Z,3.70
2023-01-11T01:23:07.428Z,4.60
2023-01-11T01:25:37.454Z,5.00
2023-01-11T01:28:04.704Z,4.00
2023-01-11T01:30:31.857Z,4.80
2023-01-11T01:32:59.030Z,4.00
2023-01-11T01:35:26.080Z,3.70
2023-01-11T01:37:53.211Z,3.60
2023-01-11T01:40:21.287Z,4.10
2023-01-11T01:42:52.595Z,4.60
2023-01-11T01:45:28.684Z,4.00
2023-01-11T01:48:01.951Z,4.30
2023-01-11T01:50:41.773Z,5.50
2023-01-11T01:53:14.465Z,2.90
2023-01-11T01:55:45.736Z,5.10
2023-01-11T01:58:16.900Z,3.60
2023-01-11T02:00:45.950Z,3.10
2023-01-11T02:03:18.602Z,3.70
2023-01-11T02:05:46.373Z,3.80
2023-01-11T02:08:37.335Z,3.90
2023-01-11T02:11:25.019Z,4.40
2023-01-11T02:13:52.177Z,3.70
2023-01-11T02:16:19.203Z,3.30
2023-01-11T02:18:46.669Z,4.00
2023-01-11T02:21:47.832Z,4.40
2023-01-11T02:24:17.940Z,3.20
2023-01-11T02:27:06.510Z,4.30
2023-01-11T02:29:41.272Z,3.80
2023-01-11T02:32:44.039Z,4.20
2023-01-11T02:35:31.539Z,3.30
2023-01-11T02:38:02.411Z,5.00
2023-01-11T02:41:15.502Z,4.80
2023-01-11T02:44:20.854Z,3.60
2023-01-11T02:47:01.605Z,4.80
2023-01-11T02:49:40.958Z,4.30
2023-01-11T02:52:19.337Z,4.90
2023-01-11T02:54:54.228Z,3.60
2023-01-11T02:57:25.651Z,3.60
2023-01-11T02:59:55.157Z,4.80
2023-01-11T03:02:22.166Z,4.10
2023-01-11T03:04:49.179Z,4.10
2023-01-11T03:07:37.667Z,3.70
2023-01-11T03:10:10.824Z,4.70
2023-01-11T03:13:03.843Z,4.40
2023-01-11T03:16:02.346Z,3.90
2023-01-11T03:19:09.722Z,4.40
2023-01-11T03:21:52.093Z,4.10
2023-01-11T03:24:38.943Z,3.40
2023-01-11T03:27:23.039Z,3.80
2023-01-11T03:29:52.973Z,3.80
2023-01-11T03:32:32.144Z,3.10
2023-01-11T03:35:13.332Z,4.50
2023-01-11T03:37:54.924Z,4.00
2023-01-11T03:40:36.597Z,5.00
2023-01-11T03:43:13.434Z,5.80
2023-01-11T03:45:58.288Z,5.00
2023-01-11T03:48:35.017Z,4.30
2023-01-11T03:51:04.345Z,3.80
2023-01-11T03:53:35.546Z,3.80
2023-01-11T03:56:07.009Z,3.00
2023-01-11T03:58:34.185Z,4.00
2023-01-11T04:01:02.746Z,4.10
2023-01-11T04:03:30.154Z,3.70
2023-01-11T04:06:00.422Z,3.70
2023-01-11T04:08:28.007Z,3.80
2023-01-11T04:10:56.037Z,3.80
2023-01-11T04:13:23.051Z,3.50
2023-01-11T04:15:50.046Z,3.70
2023-01-11T04:18:17.059Z,3.20
2023-01-11T04:20:46.747Z,2.80
2023-01-11T04:23:15.288Z,3.20
2023-01-11T04:25:42.347Z,5.60
2023-01-11T04:28:09.465Z,4.10
2023-01-11T04:30:37.420Z,3.00
2023-01-11T04:33:04.622Z,3.60
2023-01-11T04:35:31.673Z,3.20
2023-01-11T04:37:58.850Z,4.30
2023-01-11T04:40:25.867Z,4.00
2023-01-11T04:42:52.889Z,4.90
2023-01-11T04:45:19.947Z,3.40
2023-01-11T04:47:46.960Z,4.20
2023-01-11T04:50:14.100Z,3.50
2023-01-11T04:52:41.945Z,3.30
2023-01-11T04:55:09.528Z,3.80
2023-01-11T04:57:36.779Z,3.90
2023-01-11T05:00:11.106Z,4.00
2023-01-11T05:02:38.744Z,3.50
2023-01-11T05:05:07.596Z,4.40
2023-01-11T05:07:35.064Z,3.40
2023-01-11T05:10:02.945Z,4.20
2023-01-11T05:12:29.931Z,4.50
2023-01-11T05:14:57.430Z,4.30
2023-01-11T05:17:24.400Z,5.20
2023-01-11T05:19:51.438Z,4.80
2023-01-11T05:22:18.443Z,4.10
2023-01-11T05:24:45.488Z,3.90
2023-01-11T05:27:12.626Z,4.30
2023-01-11T05:29:39.614Z,4.50
2023-01-11T05:32:06.737Z,4.10
2023-01-11T05:34:33.913Z,4.60
2023-01-11T05:37:00.908Z,3.50
2023-01-11T05:39:28.008Z,4.60
2023-01-11T05:41:55.096Z,3.90
2023-01-11T05:44:40.694Z,3.00
2023-01-11T05:47:07.686Z,4.70
2023-01-11T05:49:34.697Z,4.80
2023-01-11T05:52:01.703Z,4.20
2023-01-11T05:54:28.735Z,4.70
2023-01-11T05:56:57.975Z,3.10
2023-01-11T05:59:26.999Z,4.40
2023-01-11T06:01:54.218Z,4.20
2023-01-11T06:04:21.278Z,4.30
2023-01-11T06:06:48.347Z,5.20
2023-01-11T06:09:15.380Z,3.60
2023-01-11T06:11:42.487Z,4.70
2023-01-11T06:14:09.482Z,5.10
2023-01-11T06:16:36.612Z,5.50
2023-01-11T06:19:03.821Z,6.90
2023-01-11T06:21:30.839Z,5.70
2023-01-11T06:23:57.863Z,4.90
2023-01-11T06:26:25.060Z,4.20
2023-01-11T06:28:52.295Z,6.10
2023-01-11T06:31:20.156Z,3.80
2023-01-11T06:33:47.811Z,3.90
2023-01-11T06:36:15.894Z,5.20
2023-01-11T06:38:43.780Z,7.00
2023-01-11T06:41:12.671Z,4.30
2023-01-11T06:43:42.305Z,4.20
2023-01-11T06:46:14.836Z,5.70
2023-01-11T06:48:42.350Z,3.90
2023-01-11T06:51:12.703Z,4.00
2023-01-11T06:53:41.818Z,3.90
2023-01-11T06:56:13.685Z,5.50
2023-01-11T07:01:08.140Z,4.30
2023-01-11T07:03:35.618Z,5.10
2023-01-11T07:06:05.044Z,4.90
2023-01-11T07:08:32.148Z,4.90
2023-01-11T07:10:59.302Z,5.90
2023-01-11T07:13:26.357Z,5.30
2023-01-11T07:15:57.363Z,5.30
2023-01-11T07:18:24.417Z,6.10
2023-01-11T07:20:52.352Z,7.00
2023-01-11T07:23:19.760Z,4.30
2023-01-11T07:25:50.037Z,4.50
2023-01-11T07:28:17.109Z,3.00
2023-01-11T07:30:57.555Z,4.20
2023-01-11T07:33:25.824Z,6.10
2023-01-11T07:35:52.903Z,6.20
2023-01-11T07:38:20.107Z,6.10
2023-01-11T07:40:47.303Z,8.50
2023-01-11T11:03:51.783Z,6.80
2023-01-11T11:06:40.198Z,6.70
2023-01-11T11:09:07.199Z,5.00
2023-01-11T11:11:53.424Z,5.40
2023-01-11T11:14:30.921Z,4.40
2023-01-11T11:17:04.568Z,4.40
2023-01-11T11:19:33.417Z,4.90
2023-01-11T11:22:00.889Z,5.70
2023-01-11T11:24:37.720Z,5.10
2023-01-11T11:27:17.305Z,10.80
2023-01-11T11:29:51.495Z,5.40
2023-01-11T11:32:29.132Z,5.10
2023-01-11T11:34:56.343Z,4.10
2023-01-11T11:37:26.874Z,4.80
2023-01-11T11:39:55.412Z,4.40
2023-01-11T11:42:23.884Z,3.10
2023-01-11T11:45:09.378Z,5.00
2023-01-11T11:47:38.085Z,8.90
2023-01-11T11:50:37.093Z,5.90
2023-01-11T11:53:07.595Z,5.20
2023-01-11T11:55:35.671Z,5.30
2023-01-11T11:58:08.736Z,4.80
2023-01-11T12:00:44.434Z,5.10
2023-01-11T12:03:18.786Z,4.20
2023-01-11T12:05:56.422Z,3.60
2023-01-11T12:08:27.284Z,4.50
2023-01-11T12:10:58.541Z,4.10
2023-01-11T12:13:30.620Z,7.20
2023-01-11T12:16:03.284Z,7.00
2023-01-11T12:18:43.127Z,4.40
2023-01-11T12:21:39.623Z,6.70
2023-01-11T12:24:19.692Z,11.10
2023-01-11T12:27:07.453Z,5.10
2023-01-11T12:29:37.542Z,5.20
2023-01-11T12:32:16.398Z,4.40
2023-01-11T12:35:04.357Z,5.40
2023-01-11T12:37:40.315Z,3.90
2023-01-11T12:40:34.688Z,5.40
2023-01-11T12:43:46.886Z,6.50
2023-01-11T12:46:47.367Z,4.50
2023-01-11T12:49:29.788Z,4.70
2023-01-11T12:52:10.772Z,5.30
2023-01-11T12:54:43.295Z,5.10
2023-01-11T13:00:16.590Z,4.70
2023-01-11T13:02:59.254Z,3.90
2023-01-11T13:05:55.012Z,3.70
2023-01-11T13:08:36.395Z,3.30
2023-01-11T13:11:43.679Z,3.90
2023-01-11T13:14:22.304Z,6.40
2023-01-11T13:17:09.778Z,4.90
2023-01-11T13:20:08.760Z,3.80
2023-01-11T13:22:40.739Z,5.30
2023-01-11T13:25:20.104Z,4.60
2023-01-11T13:27:49.820Z,4.40
2023-01-11T13:30:20.071Z,3.60
2023-01-11T13:32:56.645Z,4.00
2023-01-11T13:35:45.617Z,4.00
2023-01-11T13:38:20.295Z,5.30
2023-01-11T13:40:51.877Z,16.00
2023-01-11T13:43:44.952Z,5.30
2023-01-11T13:46:16.506Z,3.40
2023-01-11T13:48:51.701Z,2.60
2023-01-11T13:51:41.426Z,4.20
2023-01-11T13:54:22.144Z,4.70
2023-01-11T13:57:15.843Z,4.10
2023-01-11T13:59:56.389Z,4.40
2023-01-11T14:02:32.880Z,6.00
2023-01-11T14:05:06.936Z,7.10
2023-01-11T14:07:41.174Z,7.00
2023-01-11T14:10:44.675Z,6.90
2023-01-11T14:13:11.745Z,6.10
2023-01-11T14:15:54.431Z,5.90
2023-01-11T14:18:25.732Z,6.60
2023-01-11T14:21:06.335Z,4.90
2023-01-11T14:23:55.146Z,6.10
2023-01-11T14:26:43.839Z,5.40
2023-01-11T14:29:17.084Z,5.80
2023-01-11T14:32:18.515Z,5.10
2023-01-11T14:35:06.245Z,4.30
2023-01-11T14:37:50.426Z,6.70
2023-01-11T14:40:32.623Z,6.60
2023-01-11T14:45:51.339Z,6.80
2023-01-11T14:48:30.711Z,6.20
2023-01-11T14:51:33.370Z,7.00
2023-01-11T14:54:26.282Z,5.30
2023-01-11T14:59:30.318Z,5.20
2023-01-11T15:02:03.695Z,6.50
2023-01-11T15:04:58.363Z,6.40
2023-01-11T15:07:31.603Z,7.20
2023-01-11T15:10:02.073Z,6.30
2023-01-11T15:12:38.514Z,5.90
2023-01-11T15:15:07.976Z,5.60
2023-01-11T15:17:53.658Z,6.40
2023-01-11T15:20:22.957Z,5.60
2023-01-11T15:22:58.740Z,7.30
2023-01-11T15:25:28.733Z,6.40
2023-01-11T15:27:56.671Z,6.10
2023-01-11T15:30:34.291Z,5.40
2023-01-11T15:33:19.907Z,6.10
2023-01-11T15:35:56.304Z,6.40
2023-01-11T15:38:35.018Z,6.50
2023-01-11T15:41:23.929Z,6.30
2023-01-11T15:44:28.979Z,7.30
2023-01-11T15:47:08.233Z,6.20
2023-01-11T15:50:06.695Z,10.40
2023-01-11T15:52:50.764Z,10.00
2023-01-11T15:55:48.462Z,12.00
2023-01-11T15:58:33.840Z,9.30
2023-01-11T16:01:22.443Z,7.20
2023-01-11T16:04:21.913Z,6.90
2023-01-11T16:06:54.772Z,7.80
2023-01-11T16:09:34.064Z,7.20
2023-01-11T16:12:13.461Z,7.10
2023-01-11T16:15:23.727Z,8.90
2023-01-11T16:17:51.431Z,8.30
2023-01-11T16:20:21.437Z,6.60
2023-01-11T16:23:01.355Z,7.60
2023-01-11T16:25:37.039Z,6.90
2023-01-11T16:28:06.078Z,7.40
2023-01-11T16:30:34.411Z,7.10
2023-01-11T16:33:21.933Z,5.90
2023-01-11T16:35:49.710Z,5.50
2023-01-11T16:38:22.605Z,6.60
2023-01-11T16:40:53.331Z,6.60
2023-01-11T16:43:33.647Z,6.60
2023-01-11T16:46:00.688Z,5.70
2023-01-11T16:48:30.783Z,6.00
2023-01-11T16:50:58.172Z,6.00
2023-01-11T16:53:26.805Z,5.40
2023-01-11T16:56:05.615Z,5.70
2023-01-11T16:58:37.907Z,7.00
2023-01-11T17:01:06.770Z,8.00
2023-01-11T17:03:43.928Z,7.00
2023-01-11T17:06:22.657Z,6.80
2023-01-11T17:08:50.920Z,7.60
2023-01-11T17:11:38.057Z,5.90
2023-01-11T17:14:47.778Z,5.90
2023-01-11T17:17:15.044Z,8.30
2023-01-11T17:19:50.127Z,10.60
2023-01-11T17:22:17.097Z,11.80
2023-01-11T17:24:51.430Z,7.70
2023-01-11T17:27:41.105Z,6.70
2023-01-11T17:30:19.470Z,9.60
2023-01-11T17:32:49.799Z,6.00
2023-01-11T17:35:37.153Z,7.40
2023-01-11T17:38:08.725Z,6.50
2023-01-11T17:40:39.508Z,7.50
2023-01-11T17:43:29.362Z,10.00
2023-01-11T17:45:58.675Z,7.60
2023-01-11T17:48:27.672Z,6.40
2023-01-11T17:50:57.496Z,6.40
2023-01-11T17:53:26.977Z,6.40
2023-01-11T17:56:27.307Z,7.50
2023-01-11T17:59:15.509Z,5.80
2023-01-11T18:01:49.161Z,5.50
2023-01-11T18:04:19.361Z,6.30
2023-01-11T18:06:48.689Z,6.70
2023-01-11T18:09:24.130Z,6.90
2023-01-11T18:11:53.446Z,7.70
2023-01-11T18:14:31.046Z,7.30
2023-01-11T18:17:04.613Z,6.70
2023-01-11T18:19:42.802Z,6.50
2023-01-11T18:22:30.658Z,9.60
2023-01-11T18:25:00.063Z,14.00
2023-01-11T18:27:28.873Z,10.40
2023-01-11T18:29:58.024Z,7.20
2023-01-11T18:32:26.433Z,6.80
2023-01-11T18:34:54.789Z,7.20
2023-01-11T18:37:22.007Z,8.40
2023-01-11T18:39:50.929Z,8.30
2023-01-11T18:42:23.085Z,7.30
2023-01-11T18:47:17.024Z,7.70
2023-01-11T18:49:44.107Z,6.60
2023-01-11T18:52:11.415Z,7.70
2023-01-11T18:54:39.475Z,6.70
2023-01-11T18:57:07.620Z,7.60
2023-01-11T18:59:35.176Z,4.40
2023-01-11T19:02:17.264Z,5.10
2023-01-11T19:04:45.415Z,6.40
2023-01-11T19:07:13.040Z,5.80
2023-01-11T19:09:40.957Z,7.00
2023-01-11T19:12:08.387Z,8.00
2023-01-11T19:14:35.426Z,6.00
2023-01-11T19:17:04.837Z,5.80
2023-01-11T19:19:31.888Z,7.50
2023-01-11T19:21:58.938Z,6.20
2023-01-11T19:24:25.941Z,5.90
2023-01-11T19:26:53.071Z,7.10
2023-01-11T19:29:20.575Z,5.40
2023-01-11T19:31:48.187Z,5.70
2023-01-11T19:34:15.315Z,6.50
2023-01-11T19:36:42.539Z,6.50
2023-01-11T19:39:09.971Z,6.80
2023-01-11T19:41:58.129Z,5.60
2023-01-11T19:44:27.173Z,8.10
2023-01-11T19:47:09.689Z,7.00
2023-01-11T19:49:37.927Z,7.50
2023-01-11T19:52:12.383Z,6.60
2023-01-11T19:54:43.692Z,5.90
2023-01-11T19:57:14.350Z,8.40
2023-01-11T19:59:42.498Z,8.20
2023-01-11T20:02:12.692Z,6.90
2023-01-11T20:04:40.360Z,6.80
2023-01-11T20:07:09.744Z,6.20
2023-01-11T20:09:38.045Z,6.00
2023-01-11T20:12:07.077Z,6.30
2023-01-11T20:14:34.701Z,5.30
2023-01-11T20:17:02.655Z,6.20
2023-01-11T20:19:30.353Z,7.80
2023-01-11T20:21:57.477Z,6.70
2023-01-11T20:24:29.190Z,4.90
2023-01-11T20:26:58.447Z,6.60
2023-01-11T20:29:25.693Z,5.60
2023-01-11T20:31:53.142Z,7.20
2023-01-11T20:34:20.939Z,5.50
2023-01-11T20:36:49.118Z,4.30
2023-01-11T20:39:17.587Z,7.90
2023-01-11T20:41:47.475Z,5.50
2023-01-11T20:44:19.752Z,6.50
2023-01-11T20:46:48.457Z,5.40
2023-01-11T20:49:17.105Z,6.20
2023-01-11T20:51:45.811Z,7.20
2023-01-11T20:54:12.958Z,6.60
2023-01-11T20:56:41.052Z,4.30
2023-01-11T20:59:09.732Z,5.90
2023-01-11T21:01:37.611Z,7.30
2023-01-11T21:04:07.399Z,7.80
2023-01-11T21:06:37.045Z,5.30
2023-01-11T21:09:05.255Z,7.90
2023-01-11T21:11:32.735Z,6.90
2023-01-11T21:14:01.759Z,5.90
2023-01-11T21:16:29.709Z,6.70
2023-01-11T21:19:01.759Z,5.50
2023-01-11T21:23:59.684Z,5.90
2023-01-11T21:26:27.936Z,5.00
2023-01-11T21:29:00.747Z,5.00
2023-01-11T21:31:30.641Z,4.70
2023-01-11T21:33:59.302Z,5.60
2023-01-11T21:36:28.062Z,6.30
2023-01-11T21:38:56.996Z,5.20
2023-01-11T21:41:48.450Z,5.40
2023-01-11T21:44:16.718Z,7.80
2023-01-11T21:46:45.119Z,5.40
2023-01-11T21:49:13.343Z,6.40
2023-01-11T21:51:41.146Z,5.40
2023-01-11T21:54:13.604Z,4.40
2023-01-11T21:56:43.898Z,5.50
2023-01-11T21:59:10.892Z,5.60
2023-01-11T22:01:39.818Z,4.10
2023-01-11T22:04:12.561Z,5.70
2023-01-11T22:06:41.799Z,4.80
2023-01-11T22:09:11.314Z,5.10
2023-01-11T22:11:39.204Z,4.60
2023-01-11T22:14:08.851Z,4.90
2023-01-11T22:16:37.441Z,4.60
2023-01-11T22:19:07.522Z,5.50
2023-01-11T22:21:36.137Z,5.40
2023-01-11T22:24:03.522Z,6.00
2023-01-11T22:26:33.543Z,4.00
2023-01-11T22:29:12.941Z,5.00
2023-01-11T22:31:41.754Z,4.20
2023-01-11T22:34:09.859Z,5.20
2023-01-11T22:36:37.147Z,6.30
2023-01-11T22:39:04.501Z,5.00
2023-01-11T22:41:32.549Z,5.40
2023-01-11T22:43:59.813Z,4.40
2023-01-11T22:46:27.860Z,5.70
2023-01-11T22:48:55.172Z,6.00
2023-01-11T22:51:25.938Z,5.20
2023-01-11T22:53:55.222Z,6.80
2023-01-11T22:56:25.835Z,5.00
2023-01-11T22:58:54.005Z,5.10
2023-01-11T23:01:34.022Z,4.10
2023-01-11T23:04:02.044Z,5.20
2023-01-11T23:06:34.418Z,4.80
2023-01-11T23:09:01.490Z,4.80
2023-01-11T23:11:50.767Z,4.60
2023-01-11T23:14:19.816Z,5.00
2023-01-11T23:16:49.343Z,3.90
2023-01-11T23:19:18.938Z,6.20
2023-01-11T23:21:47.311Z,7.20
2023-01-11T23:24:15.865Z,6.80
2023-01-11T23:26:43.116Z,5.80
2023-01-11T23:29:10.350Z,6.10
2023-01-11T23:31:37.870Z,5.00
2023-01-11T23:34:07.157Z,4.80
2023-01-11T23:36:38.565Z,4.90
2023-01-11T23:39:07.809Z,4.90
2023-01-11T23:41:53.766Z,5.50
2023-01-11T23:44:20.832Z,4.40
2023-01-11T23:47:06.648Z,5.40
2023-01-11T23:49:34.106Z,5.50
2023-01-11T23:52:01.743Z,5.30
2023-01-11T23:54:31.907Z,4.20
2023-01-11T23:57:00.254Z,4.70
2023-01-11T23:59:27.438Z,6.00
